Time;durP1;ratioP1;P1;durP2;ratioP2;P2;SDS_P1;SDS_P2;PMS_P1;PMS_P2;Temp;Humidity;BMP_temperature;BMP_pressure;BME280_temperature;BME280_humidity;BME280_pressure;Samples;Min_cycle;Max_cycle;Signal;HPM_P1;HPM_P2
2021/08/04 00:01:59;;;;;;;;;;;;;;;16.71;67.16;99375.34;5083866;28;20036;-87
2021/08/04 00:04:25;;;;;;;134.97;54.57;;;;;;;16.68;67.88;99382.38;5102709;28;19931;-86
2021/08/04 00:06:51;;;;;;;167.52;71.10;;;;;;;16.33;67.40;99330.56;5104899;28;20036;-86
2021/08/04 00:09:18;;;;;;;169.50;74.30;;;;;;;16.66;67.32;99376.41;5082123;28;20040;-87
2021/08/04 00:11:44;;;;;;;165.85;76.65;;;;;;;16.55;67.50;99362.28;5082298;28;20040;-87
2021/08/04 00:14:12;;;;;;;133.88;62.15;;;;;;;16.50;67.74;99353.50;5082345;28;20054;-87
2021/08/04 00:16:38;;;;;;;99.57;43.65;;;;;;;16.51;67.52;99361.41;5082730;28;20043;-96
2021/08/04 00:19:04;;;;;;;76.20;33.35;;;;;;;16.41;67.75;99346.16;5083368;28;20044;-87
2021/08/04 00:21:33;;;;;;;64.28;28.30;;;;;;;16.45;67.54;99349.00;5102551;28;20040;-87
2021/08/04 00:23:59;;;;;;;59.25;25.23;;;;;;;16.52;67.17;99368.50;5102280;28;20185;-87
2021/08/04 00:26:27;;;;;;;61.42;25.10;;;;;;;16.53;67.27;99364.63;5099828;28;20050;-86
2021/08/04 00:28:53;;;;;;;48.20;19.33;;;;;;;16.39;67.66;99344.88;5104229;28;20040;-87
2021/08/04 00:31:20;;;;;;;;;;;;;;;16.63;67.82;99382.63;5100532;28;20032;-87
2021/08/04 00:33:46;;;;;;;44.20;18.57;;;;;;;16.32;67.22;99334.47;5099916;28;19930;-86
2021/08/04 00:36:13;;;;;;;43.75;19.10;;;;;;;16.52;67.45;99371.28;5081108;28;20300;-86
2021/08/04 00:38:39;;;;;;;44.80;17.48;;;;;;;16.55;67.80;99373.34;5098862;28;20055;-87
2021/08/04 00:41:07;;;;;;;39.92;16.77;;;;;;;16.33;67.57;99341.59;5098306;28;20130;-86
2021/08/04 00:43:34;;;;;;;33.90;12.77;;;;;;;16.55;67.29;99378.06;5099285;28;20047;-88
2021/08/04 00:46:00;;;;;;;34.22;12.45;;;;;;;16.49;67.63;99362.91;5079355;28;20093;-88
2021/08/04 00:48:27;;;;;;;36.80;11.80;;;;;;;16.61;67.38;99388.50;5069596;28;20040;-88
2021/08/04 00:50:54;;;;;;;29.20;11.65;;;;;;;16.51;67.69;99366.91;5081058;28;20051;-86
2021/08/04 00:53:23;;;;;;;36.35;16.33;;;;;;;16.49;67.82;99366.50;5080510;28;20165;-86
2021/08/04 00:55:55;;;;;;;65.88;29.67;;;;;;;16.60;68.00;99386.09;5098971;28;20046;-87
2021/08/04 00:58:34;;;;;;;76.85;32.83;;;;;;;16.38;67.78;99357.88;5081539;28;20520;-86
2021/08/04 01:01:11;;;;;;;96.47;40.60;;;;;;;16.48;67.42;99377.88;5080147;28;20061;-87
2021/08/04 01:03:45;;;;;;;97.80;38.15;;;;;;;16.52;67.81;99387.03;5103565;28;20040;-91
2021/08/04 01:06:28;;;;;;;71.72;33.08;;;;;;;16.39;67.89;99370.53;5100334;28;20471;-86
2021/08/04 01:08:58;;;;;;;62.85;28.20;;;;;;;16.47;67.87;99393.63;5101834;28;20101;-88
2021/08/04 01:11:33;;;;;;;52.90;23.70;;;;;;;16.26;67.87;99363.47;5081359;28;20412;-86
2021/08/04 01:14:03;;;;;;;43.97;20.10;;;;;;;16.39;68.10;99383.50;5101300;28;20093;-90
2021/08/04 01:16:38;;;;;;;56.30;19.52;;;;;;;16.38;68.21;99385.47;5097010;28;20048;-87
2021/08/04 01:19:18;;;;;;;46.50;17.27;;;;;;;16.25;68.25;99370.13;5099435;28;20572;-87
2021/08/04 01:21:44;;;;;;;38.70;14.90;;;;;;;16.34;68.55;99395.59;5083406;28;20485;-86
2021/08/04 01:24:53;;;;;;;32.92;15.10;;;;;;;16.35;68.52;99399.16;5100151;28;20071;-86
2021/08/04 01:27:21;;;;;;;32.33;13.90;;;;;;;16.19;68.62;99375.09;5065288;28;20066;-93
2021/08/04 01:29:48;;;;;;;;;;;;;;;16.33;68.66;99404.25;5079289;28;20050;-87
2021/08/04 01:32:15;;;;;;;35.90;11.90;;;;;;;16.13;69.02;99384.75;5096690;28;20407;-86
2021/08/04 01:34:43;;;;;;;33.05;12.93;;;;;;;16.14;68.56;99391.88;5098767;28;20040;-92
2021/08/04 01:37:12;;;;;;;40.90;14.98;;;;;;;15.98;68.86;99374.44;5100248;28;20437;-88
2021/08/04 01:39:38;;;;;;;;;;;;;;;16.30;69.00;99413.22;5098322;28;20040;-88
2021/08/04 01:42:06;;;;;;;41.75;15.75;;;;;;;16.14;68.75;99402.91;5098722;28;19908;-87
2021/08/04 01:44:34;;;;;;;34.22;14.63;;;;;;;16.12;68.90;99401.63;5082033;28;20492;-86
2021/08/04 01:47:02;;;;;;;38.58;17.73;;;;;;;16.27;69.35;99428.50;5099454;28;20100;-88
2021/08/04 01:49:29;;;;;;;37.13;16.23;;;;;;;16.20;68.96;99425.53;5078405;28;20051;-86
2021/08/04 01:51:57;;;;;;;29.85;14.43;;;;;;;16.00;69.63;99409.94;5096568;28;20036;-87
2021/08/04 01:54:25;;;;;;;28.33;12.13;;;;;;;16.10;69.91;99428.78;5081186;28;20047;-86
2021/08/04 01:56:51;;;;;;;22.58;11.35;;;;;;;15.87;70.02;99393.41;5097404;28;20040;-85
2021/08/04 01:59:23;;;;;;;23.45;10.88;;;;;;;16.12;70.50;99427.25;5080859;28;20138;-87
2021/08/04 02:01:50;;;;;;;27.40;12.65;;;;;;;16.06;70.62;99422.31;5080377;28;20051;-86
2021/08/04 02:04:19;;;;;;;81.78;32.33;;;;;;;16.13;70.04;99430.84;5096319;28;20131;-90
2021/08/04 02:07:03;;;;;;;87.13;38.38;;;;;;;16.12;70.06;99430.00;5093543;28;20070;-86
2021/08/04 02:09:50;;;;;;;99.15;39.33;;;;;;;16.18;69.90;99433.34;5097540;28;20044;-87
2021/08/04 02:12:20;;;;;;;;;;;;;;;16.17;69.97;99435.31;5081842;28;20126;-87
2021/08/04 02:14:53;;;;;;;87.60;36.58;;;;;;;16.16;69.90;99433.72;5086560;28;19919;-86
2021/08/04 02:17:42;;;;;;;91.25;38.58;;;;;;;16.18;70.08;99436.91;5063585;28;20044;-86
2021/08/04 02:20:38;;;;;;;75.88;33.08;;;;;;;16.15;70.01;99436.78;5096005;28;20044;-86
2021/08/04 02:23:08;;;;;;;83.68;31.13;;;;;;;16.15;69.89;99448.63;5078643;28;20057;-86
2021/08/04 02:25:58;;;;;;;94.82;37.60;;;;;;;16.04;70.48;99436.47;5079408;28;20040;-87
2021/08/04 02:28:32;;;;;;;51.38;22.77;;;;;;;15.88;70.52;99416.25;5097834;28;20504;-87
2021/08/04 02:31:00;;;;;;;37.63;17.65;;;;;;;15.71;70.30;99393.31;5100146;28;20089;-86
2021/08/04 02:33:27;;;;;;;22.50;9.63;;;;;;;15.71;70.60;99403.53;5097572;28;20131;-86
2021/08/04 02:35:54;;;;;;;23.27;10.80;;;;;;;16.01;70.28;99459.22;5101163;28;20044;-86
2021/08/04 02:38:20;;;;;;;;;;;;;;;16.01;70.85;99461.97;5098384;28;20036;-87
2021/08/04 02:40:49;;;;;;;32.63;13.77;;;;;;;15.94;71.18;99456.25;5078668;28;19920;-87
2021/08/04 02:43:16;;;;;;;30.38;14.40;;;;;;;15.80;71.23;99439.25;5078434;28;20036;-86
2021/08/04 02:45:44;;;;;;;39.28;20.13;;;;;;;15.90;70.90;99441.53;5096263;28;20481;-86
2021/08/04 02:48:12;;;;;;;42.80;19.35;;;;;;;16.01;70.94;99450.16;5080425;28;20116;-87
2021/08/04 02:50:46;;;;;;;48.22;18.92;;;;;;;16.17;70.66;99467.59;5095191;28;20035;-87
2021/08/04 02:53:15;;;;;;;37.88;16.92;;;;;;;16.09;70.57;99447.28;5079649;28;20063;-89
2021/08/04 02:55:42;;;;;;;44.13;17.63;;;;;;;16.12;70.79;99452.06;5063075;28;20131;-87
2021/08/04 02:58:08;;;;;;;;;;;;;;;16.33;70.92;99471.25;5063629;28;20027;-87
2021/08/04 03:00:34;;;;;;;34.88;15.20;;;;;;;16.28;70.51;99460.44;5077906;28;19919;-86
2021/08/04 03:03:00;;;;;;;31.13;14.80;;;;;;;16.26;70.70;99443.47;5096168;28;20032;-87
2021/08/04 03:05:27;;;;;;;29.65;12.55;;;;;;;16.32;70.47;99444.00;5082875;28;20032;-87
2021/08/04 03:07:54;;;;;;;24.42;11.05;;;;;;;16.54;70.35;99460.03;5097800;28;20101;-87
2021/08/04 03:10:21;;;;;;;22.50;10.77;;;;;;;16.51;70.41;99441.44;5082756;28;20012;-87
2021/08/04 03:12:48;;;;;;;26.58;11.55;;;;;;;16.79;69.64;99465.53;5095874;28;20051;-91
2021/08/04 03:15:34;;;;;;;32.83;11.57;;;;;;;16.90;69.44;99461.13;5057483;28;20087;-87
2021/08/04 03:18:02;;;;;;;24.80;10.55;;;;;;;16.95;69.46;99466.38;5038685;28;20094;-93
2021/08/04 03:20:28;;;;;;;26.58;10.25;;;;;;;17.17;69.31;99492.63;5018956;28;20639;-87
2021/08/04 03:22:54;;;;;;;26.20;10.23;;;;;;;17.10;69.14;99460.09;5052457;28;20037;-86
2021/08/04 03:25:21;;;;;;;25.77;11.05;;;;;;;17.33;68.84;99465.84;5037720;28;20051;-87
2021/08/04 03:27:48;;;;;;;26.38;9.98;;;;;;;17.63;68.04;99486.72;5053504;28;20037;-87
2021/08/04 03:30:15;;;;;;;21.90;7.67;;;;;;;17.73;65.94;99475.13;5018402;28;20053;-87
2021/08/04 03:32:42;;;;;;;19.85;5.70;;;;;;;17.90;64.44;99483.09;5035285;28;20044;-96
2021/08/04 03:35:09;;;;;;;13.32;5.25;;;;;;;17.98;63.36;99464.69;5055560;28;20135;-93
2021/08/04 03:37:36;;;;;;;12.68;5.75;;;;;;;18.23;63.30;99470.81;5024574;28;20052;-86
2021/08/04 03:40:03;;;;;;;16.37;5.03;;;;;;;18.50;62.41;99491.19;5025357;28;20033;-94
2021/08/04 03:42:30;;;;;;;14.30;4.28;;;;;;;18.51;61.14;99485.31;5057926;28;20052;-88
2021/08/04 03:44:56;;;;;;;42.08;5.72;;;;;;;18.75;60.74;99513.94;5010459;28;20068;-96
2021/08/04 03:47:24;;;;;;;22.23;4.05;;;;;;;18.66;60.20;99489.19;5092253;28;20093;-92
2021/08/04 03:49:50;;;;;;;17.63;3.70;;;;;;;18.77;59.92;99504.09;5098777;28;20459;-87
2021/08/04 03:52:17;;;;;;;13.45;3.38;;;;;;;18.85;59.61;99518.91;5100138;28;20109;-87
2021/08/04 03:57:10;;;;;;;15.18;3.33;;;;;;;18.88;60.14;99518.19;5099649;28;20047;-86
2021/08/04 03:59:38;;;;;;;17.48;3.78;;;;;;;18.91;60.14;99520.22;5098033;28;20040;-87
2021/08/04 04:02:07;;;;;;;10.07;3.30;;;;;;;18.91;59.94;99519.41;5104938;28;20047;-89
2021/08/04 04:04:33;;;;;;;11.73;3.47;;;;;;;18.96;60.08;99519.91;5103544;28;20034;-87
2021/08/04 04:06:59;;;;;;;12.98;3.60;;;;;;;18.93;59.47;99508.75;5120821;28;20024;-88
2021/08/04 04:09:25;;;;;;;22.00;4.37;;;;;;;18.98;59.46;99512.06;5103678;28;20027;-87
2021/08/04 04:11:51;;;;;;;17.90;4.25;;;;;;;19.11;58.97;99523.00;5103085;28;20075;-88
2021/08/04 04:14:20;;;;;;;14.30;4.47;;;;;;;19.34;59.33;99546.03;5087559;28;20040;-76
2021/08/04 04:16:48;;;;;;;20.65;4.70;;;;;;;19.55;58.91;99550.38;5098849;28;20040;-79
2021/08/04 04:19:14;;;;;;;23.00;5.25;;;;;;;19.41;57.96;99504.56;5099319;28;20044;-76
2021/08/04 04:21:40;;;;;;;15.05;4.13;;;;;;;;;;5097555;28;20032;-77
2021/08/04 04:24:06;;;;;;;9.17;3.30;;;;;;;19.70;57.17;99547.53;5095751;28;20097;-87
2021/08/04 04:26:33;;;;;;;10.32;4.22;;;;;;;19.79;57.51;99547.28;5296742;22;20051;-75
2021/08/04 04:29:00;;;;;;;9.60;4.00;;;;;;;19.81;57.24;99550.50;5118210;28;20074;-75
2021/08/04 04:31:28;;;;;;;15.27;3.90;;;;;;;19.66;57.07;99557.72;5103068;28;20115;-81
2021/08/04 04:33:55;;;;;;;11.77;3.88;;;;;;;19.65;57.16;99550.59;5123978;28;20044;-77
2021/08/04 04:36:21;;;;;;;20.45;4.30;;;;;;;19.71;57.33;99553.88;5123985;28;20160;-77
2021/08/04 04:38:47;;;;;;;21.50;4.10;;;;;;;19.58;57.72;99553.22;5105059;28;20080;-77
2021/08/04 04:41:13;;;;;;;19.45;3.90;;;;;;;19.55;58.21;99555.91;5118707;28;20042;-76
2021/08/04 04:43:41;;;;;;;10.27;3.42;;;;;;;19.43;57.33;99549.34;5118340;28;20043;-88
2021/08/04 04:46:09;;;;;;;14.18;3.60;;;;;;;19.53;58.28;99549.94;5116922;28;20043;-77
2021/08/04 04:48:35;;;;;;;8.63;3.83;;;;;;;19.48;58.51;99546.28;5109241;28;20040;-76
2021/08/04 04:51:03;;;;;;;10.13;3.90;;;;;;;19.46;58.82;99551.38;5113140;28;20441;-77
2021/08/04 04:53:29;;;;;;;;;;;;;;;19.49;58.13;99560.94;5116594;28;20053;-89
2021/08/04 04:55:57;;;;;;;17.50;3.40;;;;;;;19.39;57.77;99551.25;5117707;28;19955;-95
2021/08/04 04:58:23;;;;;;;38.97;4.32;;;;;;;19.32;58.15;99564.97;5111881;28;20051;-76
2021/08/04 05:00:50;;;;;;;13.65;3.60;;;;;;;19.20;58.24;99562.34;5113945;28;20058;-76
2021/08/04 05:03:16;;;;;;;16.98;4.47;;;;;;;19.23;58.58;99548.56;5114523;28;20082;-79
2021/08/04 05:05:42;;;;;;;12.75;3.85;;;;;;;19.27;58.07;99564.47;5114006;28;20107;-95
2021/08/04 05:08:07;;;;;;;15.43;4.30;;;;;;;19.39;58.40;99564.31;5114959;28;20444;-75
2021/08/04 05:10:34;;;;;;;16.57;3.90;;;;;;;19.38;57.55;99565.50;5113217;28;20070;-94
2021/08/04 05:13:00;;;;;;;20.35;4.68;;;;;;;19.43;57.97;99568.75;5109022;28;20040;-90
2021/08/04 05:15:26;;;;;;;17.10;4.78;;;;;;;19.44;58.36;99552.94;5111680;28;20122;-76
2021/08/04 05:17:52;;;;;;;12.75;4.10;;;;;;;19.58;57.74;99566.28;5115586;28;20475;-77
2021/08/04 05:20:21;;;;;;;13.38;4.13;;;;;;;19.71;56.66;99565.78;5116746;28;20492;-77
2021/08/04 05:22:47;;;;;;;9.98;3.92;;;;;;;19.84;56.83;99565.59;5115925;28;20054;-93
2021/08/04 05:25:14;;;;;;;9.00;3.85;;;;;;;19.84;55.46;99565.59;5112876;28;20530;-76
2021/08/04 05:27:41;;;;;;;8.40;3.80;;;;;;;19.70;56.51;99547.53;5116029;28;20032;-95
2021/08/04 05:30:08;;;;;;;26.90;5.28;;;;;;;19.88;55.92;99567.25;5123646;28;20039;-93
2021/08/04 05:32:34;;;;;;;14.35;3.92;;;;;;;19.93;55.82;99572.50;5092509;28;20513;-78
2021/08/04 05:35:01;;;;;;;;;;;;;;;20.06;55.92;99577.84;5112628;28;20049;-80
2021/08/04 05:37:27;;;;;;;8.93;3.90;;;;;;;20.31;56.28;99559.66;5112088;28;19919;-80
2021/08/04 05:39:54;;;;;;;30.45;4.25;;;;;;;20.50;55.46;99578.19;5111788;28;20044;-80
2021/08/04 05:42:20;;;;;;;18.33;4.10;;;;;;;20.51;55.29;99570.69;5112105;27;20061;-78
2021/08/04 05:44:47;;;;;;;21.15;4.15;;;;;;;20.71;55.39;99571.38;5111983;28;20492;-81
2021/08/04 05:47:13;;;;;;;27.13;5.17;;;;;;;20.71;54.21;99572.19;5111785;28;20043;-80
2021/08/04 05:49:39;;;;;;;21.17;3.72;;;;;;;20.69;53.05;99579.28;5111695;28;20035;-79
2021/08/04 05:52:06;;;;;;;16.17;2.90;;;;;;;20.70;50.45;99573.38;5109608;28;21313;-80
2021/08/04 05:54:33;;;;;;;9.48;3.72;;;;;;;20.76;51.37;99577.44;5111489;28;20591;-80
2021/08/04 05:57:00;;;;;;;12.40;2.50;;;;;;;20.61;50.37;99564.50;5097921;28;20036;-78
2021/08/04 05:59:28;;;;;;;11.63;2.55;;;;;;;20.81;52.62;99570.72;5111898;28;20057;-87
2021/08/04 06:01:54;;;;;;;9.25;3.13;;;;;;;21.14;52.45;99572.75;5113426;28;20089;-79
2021/08/04 06:04:21;;;;;;;8.13;3.20;;;;;;;21.44;51.53;99580.31;5113774;28;20039;-78
2021/08/04 06:06:48;;;;;;;6.83;3.10;;;;;;;21.68;50.99;99582.53;5113978;28;20061;-80
2021/08/04 06:09:14;;;;;;;5.82;2.88;;;;;;;21.89;51.54;99583.97;5113219;28;20073;-82
2021/08/04 06:11:41;;;;;;;9.77;3.60;;;;;;;22.02;50.24;99576.94;5111762;28;20361;-87
2021/08/04 06:14:07;;;;;;;12.88;2.97;;;;;;;22.24;50.02;99577.94;5114023;28;20043;-76
2021/08/04 06:16:33;;;;;;;10.80;2.63;;;;;;;22.47;49.38;99588.88;5113495;28;20061;-76
2021/08/04 06:19:02;;;;;;;11.73;2.75;;;;;;;22.34;49.14;99576.44;5107737;28;20135;-85
2021/08/04 06:21:28;;;;;;;5.68;2.50;;;;;;;22.31;47.98;99583.56;5111285;28;20606;-76
2021/08/04 06:23:54;;;;;;;8.10;4.00;;;;;;;22.31;49.82;99582.75;5111440;28;20067;-79
2021/08/04 06:26:20;;;;;;;12.20;2.70;;;;;;;22.42;47.93;99584.47;5111254;28;20044;-75
2021/08/04 06:28:49;;;;;;;10.23;3.45;;;;;;;22.32;48.44;99579.63;5111104;28;20474;-88
2021/08/04 06:31:17;;;;;;;12.63;3.35;;;;;;;22.25;48.78;99585.91;5111284;28;20034;-74
2021/08/04 06:33:43;;;;;;;10.15;2.60;;;;;;;22.32;47.31;99584.34;5111489;28;20039;-74
2021/08/04 06:36:09;;;;;;;4.53;2.30;;;;;;;22.50;46.31;99594.47;5111471;28;20027;-74
2021/08/04 06:38:37;;;;;;;9.38;2.50;;;;;;;22.55;47.61;99593.31;5110511;28;20067;-76
2021/08/04 06:41:03;;;;;;;7.93;2.75;;;;;;;22.56;46.60;99582.97;5108626;27;20130;-75
2021/08/04 06:43:29;;;;;;;12.80;2.50;;;;;;;22.64;46.59;99593.75;5108732;28;20162;-82
2021/08/04 06:45:55;;;;;;;6.10;2.30;;;;;;;22.68;45.99;99589.03;5104181;28;20562;-80
2021/08/04 06:48:22;;;;;;;24.63;4.47;;;;;;;22.62;46.50;99592.56;5111014;28;20277;-79
2021/08/04 06:50:48;;;;;;;8.05;2.55;;;;;;;22.55;44.73;99582.16;5111835;28;20125;-81
2021/08/04 06:53:14;;;;;;;13.85;3.35;;;;;;;22.65;46.78;99588.97;5112132;28;20032;-78
2021/08/04 06:55:40;;;;;;;18.00;3.30;;;;;;;22.66;45.05;99593.38;5111354;28;20096;-96
2021/08/04 06:58:08;;;;;;;8.68;2.92;;;;;;;22.39;44.21;99595.59;5109999;28;20028;-80
2021/08/04 07:00:34;;;;;;;26.60;3.92;;;;;;;22.31;48.62;99591.13;5108502;28;20040;-82
2021/08/04 07:03:03;;;;;;;12.90;2.60;;;;;;;22.48;45.32;99596.03;5109034;28;20039;-81
2021/08/04 07:05:29;;;;;;;7.05;2.38;;;;;;;22.65;47.84;99598.16;5108644;28;20043;-79
2021/08/04 07:07:57;;;;;;;10.38;2.78;;;;;;;23.07;45.22;99590.47;5095403;28;20051;-91
2021/08/04 07:10:23;;;;;;;5.43;2.80;;;;;;;23.33;46.32;99587.38;5110819;28;20039;-79
2021/08/04 07:12:50;;;;;;;9.98;2.97;;;;;;;23.66;45.30;99593.88;5112052;28;20034;-83
2021/08/04 07:15:16;;;;;;;8.07;2.67;;;;;;;23.85;44.84;99595.56;5112108;28;20131;-80
2021/08/04 07:17:48;;;;;;;12.13;2.92;;;;;;;23.62;43.19;99591.09;5110662;27;20077;-88
2021/08/04 07:20:17;;;;;;;10.05;2.58;;;;;;;23.68;45.58;99588.75;5111035;28;20035;-92
2021/08/04 07:22:44;;;;;;;5.78;2.17;;;;;;;23.82;44.03;99591.56;5110419;28;20035;-80
2021/08/04 07:25:12;;;;;;;10.38;2.30;;;;;;;23.73;41.64;99587.53;5110860;28;20031;-87
2021/08/04 07:27:40;;;;;;;6.22;2.53;;;;;;;23.55;43.67;99582.69;5109472;27;20035;-80
2021/08/04 07:30:08;;;;;;;5.22;2.50;;;;;;;23.32;42.30;99587.78;5108533;27;20039;-80
2021/08/04 07:32:35;;;;;;;5.85;2.45;;;;;;;23.31;44.05;99589.78;5108096;28;20036;-81
2021/08/04 07:35:04;;;;;;;4.78;1.85;;;;;;;23.20;39.94;99578.56;5108383;28;20039;-80
2021/08/04 07:37:31;;;;;;;13.68;2.78;;;;;;;23.35;42.74;99595.38;5094424;28;20055;-83
2021/08/04 07:39:58;;;;;;;5.18;2.20;;;;;;;23.83;43.42;99601.53;5109296;28;20040;-79
2021/08/04 07:42:25;;;;;;;6.38;2.60;;;;;;;23.95;43.40;99586.41;5110082;28;20055;-84
2021/08/04 07:44:55;;;;;;;10.68;2.30;;;;;;;24.15;42.07;99592.41;5110335;28;20063;-79
2021/08/04 07:47:22;;;;;;;12.68;2.35;;;;;;;24.14;41.36;99588.81;5105393;27;20067;-79
2021/08/04 07:49:50;;;;;;;4.70;2.30;;;;;;;24.33;41.81;99595.97;5111609;28;20099;-79
2021/08/04 07:52:16;;;;;;;8.25;2.45;;;;;;;24.22;39.62;99577.63;5111308;28;20104;-83
2021/08/04 07:54:43;;;;;;;11.68;2.42;;;;;;;24.19;41.51;99582.03;5108002;28;20085;-85
2021/08/04 07:57:09;;;;;;;9.38;2.38;;;;;;;24.20;40.20;99588.41;5103634;28;20393;-90
2021/08/04 07:59:35;;;;;;;5.50;1.98;;;;;;;23.97;41.51;99589.56;5090003;28;20040;-80
2021/08/04 08:02:03;;;;;;;5.90;2.17;;;;;;;23.97;42.31;99595.16;5088616;28;20036;-87
2021/08/04 08:04:34;;;;;;;13.73;2.40;;;;;;;23.94;42.41;99587.59;5105446;28;20043;-88
2021/08/04 08:07:00;;;;;;;5.55;2.00;;;;;;;24.11;41.93;99591.59;5109503;28;20241;-94
2021/08/04 08:09:27;;;;;;;8.07;2.28;;;;;;;24.10;42.35;99582.41;5111700;28;20411;-94
2021/08/04 08:11:58;;;;;;;14.32;2.72;;;;;;;24.27;42.42;99580.84;5117829;28;20031;-90
2021/08/04 08:14:27;;;;;;;6.30;2.17;;;;;;;24.52;42.67;99583.63;5113024;28;20085;-90
2021/08/04 08:16:54;;;;;;;4.72;2.30;;;;;;;24.43;41.81;99582.44;5102064;27;20035;-78
2021/08/04 08:19:20;;;;;;;;;;;;;;;24.28;42.25;99590.03;5104315;28;20046;-86
2021/08/04 08:21:48;;;;;;;7.63;2.58;;;;;;;24.35;41.89;99578.84;5107144;28;20272;-87
2021/08/04 08:24:15;;;;;;;7.15;2.15;;;;;;;24.44;41.85;99582.06;5107750;28;20040;-90
2021/08/04 08:26:43;;;;;;;3.83;2.30;;;;;;;24.61;41.54;99589.63;5106954;28;20044;-82
2021/08/04 08:29:09;;;;;;;5.47;2.42;;;;;;;24.85;41.20;99585.19;5093108;28;20070;-90
2021/08/04 08:31:37;;;;;;;7.57;2.55;;;;;;;24.84;39.63;99583.59;5106192;28;20039;-86
2021/08/04 08:34:04;;;;;;;8.52;2.45;;;;;;;24.86;40.81;99580.38;5110682;28;20138;-86
2021/08/04 08:36:32;;;;;;;4.32;2.30;;;;;;;24.97;40.05;99583.16;5110066;28;20120;-78
2021/08/04 08:38:59;;;;;;;5.15;2.40;;;;;;;25.13;40.27;99585.53;5108832;28;20035;-81
2021/08/04 08:41:26;;;;;;;5.65;2.80;;;;;;;24.95;37.60;99591.16;5109954;28;20047;-83
2021/08/04 08:43:53;;;;;;;8.75;2.60;;;;;;;24.93;38.63;99591.53;5109401;28;20039;-91
2021/08/04 08:46:20;;;;;;;7.00;2.10;;;;;;;24.63;36.38;99586.41;5109533;28;20046;-92
2021/08/04 08:48:50;;;;;;;12.40;2.58;;;;;;;24.74;40.45;99580.81;5110634;28;20044;-90
2021/08/04 08:51:19;;;;;;;4.10;2.05;;;;;;;24.91;38.93;99588.38;5109110;28;20036;-88
2021/08/04 08:53:48;;;;;;;13.52;2.42;;;;;;;24.96;38.38;99587.94;5109169;27;20958;-89
2021/08/04 08:56:18;;;;;;;6.25;2.40;;;;;;;24.91;38.42;99591.16;5108398;28;20035;-89
2021/08/04 08:58:49;;;;;;;3.72;2.13;;;;;;;24.66;38.81;99594.00;5107050;28;20177;-92
2021/08/04 09:01:16;;;;;;;4.82;2.30;;;;;;;24.55;39.40;99588.44;5111483;28;20047;-92
2021/08/04 09:03:43;;;;;;;11.10;2.92;;;;;;;24.75;39.63;99590.78;5116228;28;20040;-76
2021/08/04 09:06:11;;;;;;;13.02;2.80;;;;;;;24.47;39.33;99586.03;5113614;28;20054;-75
2021/08/04 09:08:39;;;;;;;8.50;2.92;;;;;;;24.42;39.82;99601.22;5111642;28;20036;-78
2021/08/04 09:11:18;;;;;;;8.20;3.35;;;;;;;24.32;40.70;99591.59;5113302;28;20076;-91
2021/08/04 09:13:46;;;;;;;14.38;3.08;;;;;;;24.41;39.84;99596.03;5112691;28;20044;-87
2021/08/04 09:16:16;;;;;;;10.88;2.55;;;;;;;24.33;40.20;99589.59;5112526;28;20504;-77
2021/08/04 09:18:47;;;;;;;7.90;2.55;;;;;;;24.50;40.43;99586.06;5113390;28;20057;-89
2021/08/04 09:21:16;;;;;;;10.85;3.80;;;;;;;24.52;40.75;99592.03;5112453;27;20039;-93
2021/08/04 09:23:50;;;;;;;6.13;2.80;;;;;;;24.38;38.73;99592.00;5112475;28;20039;-78
2021/08/04 09:26:22;;;;;;;14.60;3.17;;;;;;;24.08;41.16;99593.19;5109783;28;20054;-88
2021/08/04 09:29:09;;;;;;;32.97;15.57;;;;;;;24.06;42.33;99595.56;5122524;27;20092;-81
2021/08/04 09:31:51;;;;;;;16.42;4.43;;;;;;;24.02;40.53;99583.59;5113731;28;20142;-75
2021/08/04 09:34:27;;;;;;;17.80;6.90;;;;;;;24.12;40.84;99588.41;5113644;28;20079;-80
2021/08/04 09:37:03;;;;;;;;;;;;;;;24.13;41.52;99581.63;5111605;28;20040;-75
2021/08/04 09:39:31;;;;;;;13.65;5.25;;;;;;;24.29;40.80;99577.63;5109061;28;19930;-90
2021/08/04 09:41:58;;;;;;;7.57;4.05;;;;;;;24.41;40.79;99573.69;5114864;28;20050;-90
2021/08/04 09:44:26;;;;;;;9.82;4.70;;;;;;;24.67;40.54;99578.00;5114569;28;20038;-91
2021/08/04 09:47:06;;;;;;;9.05;4.30;;;;;;;24.86;39.77;99571.97;5114806;28;20119;-91
2021/08/04 09:49:33;;;;;;;10.02;6.18;;;;;;;24.88;40.00;99580.00;5110188;28;20030;-92
2021/08/04 09:52:07;;;;;;;7.88;4.75;;;;;;;24.78;39.26;99573.22;5113149;28;20097;-82
2021/08/04 09:54:42;;;;;;;11.63;4.18;;;;;;;24.63;40.43;99578.03;5107254;27;20043;-77
2021/08/04 09:57:12;;;;;;;9.43;3.42;;;;;;;24.49;40.45;99570.47;5107980;28;20511;-75
2021/08/04 09:59:39;;;;;;;12.80;4.15;;;;;;;24.59;41.13;99577.25;5112234;27;20052;-76
2021/08/04 10:02:26;;;;;;;11.07;4.03;;;;;;;24.75;40.14;99571.22;5109793;28;20035;-74
2021/08/04 10:05:20;;;;;;;10.55;3.03;;;;;;;24.87;39.39;99567.19;5109129;28;20077;-92
2021/08/04 10:08:07;;;;;;;11.95;3.80;;;;;;;24.94;40.34;99573.56;5108966;28;20412;-87
2021/08/04 10:10:46;;;;;;;10.00;3.10;;;;;;;24.87;38.88;99562.41;5108297;28;20036;-80
2021/08/04 10:13:16;;;;;;;12.27;3.65;;;;;;;24.82;39.87;99557.22;5113044;28;20067;-87
2021/08/04 10:15:49;;;;;;;7.55;3.20;;;;;;;25.00;39.72;99568.34;5112667;28;20118;-87
2021/08/04 10:18:22;;;;;;;8.85;3.47;;;;;;;25.19;39.22;99564.31;5111487;28;20040;-85
2021/08/04 10:20:52;;;;;;;9.43;3.00;;;;;;;25.47;39.05;99560.59;5113019;28;20123;-74
2021/08/04 10:23:55;;;;;;;8.63;3.20;;;;;;;25.61;38.17;99563.31;5111490;28;20031;-75
2021/08/04 10:27:11;;;;;;;15.15;3.45;;;;;;;25.46;37.65;99561.78;5111738;27;20043;-77
2021/08/04 10:29:41;;;;;;;10.00;2.70;;;;;;;25.34;36.83;99560.25;5109892;28;20039;-77
2021/08/04 10:35:11;;;;;;;5.82;2.83;;;;;;;25.23;38.77;99548.31;5111852;28;20044;-83
2021/08/04 10:37:41;;;;;;;8.20;2.70;;;;;;;25.51;38.47;99562.16;5113625;28;20031;-87
2021/08/04 10:40:09;;;;;;;4.13;2.47;;;;;;;25.67;38.43;99552.50;5107796;28;20650;-90
2021/08/04 10:42:43;;;;;;;23.63;2.97;;;;;;;25.64;38.95;99550.50;5112049;27;20035;-80
2021/08/04 10:45:28;;;;;;;8.55;2.85;;;;;;;25.57;38.04;99547.75;5110174;28;20058;-81
2021/08/04 10:48:22;;;;;;;5.68;2.78;;;;;;;25.58;38.57;99547.34;5110192;28;20046;-83
2021/08/04 10:51:15;;;;;;;10.75;2.67;;;;;;;25.71;38.14;99550.47;5110794;28;20036;-92
2021/08/04 10:54:20;;;;;;;4.30;2.70;;;;;;;25.77;37.98;99548.81;5105840;28;20633;-91
2021/08/04 10:56:50;;;;;;;8.65;2.92;;;;;;;25.88;37.77;99554.38;5033066;28;20053;-90
2021/08/04 10:59:27;;;;;;;13.65;3.40;;;;;;;25.89;37.51;99562.34;5038390;28;20571;-91
2021/08/04 11:02:14;;;;;;;7.45;3.15;;;;;;;25.80;38.22;99552.81;5041906;28;20629;-90
2021/08/04 11:04:43;;;;;;;;;;;;;;;25.84;38.66;99556.41;5039650;28;20128;-86
2021/08/04 11:07:09;;;;;;;6.22;2.72;;;;;;;25.83;38.74;99552.81;5033636;28;19960;-89
2021/08/04 11:09:44;;;;;;;11.32;3.53;;;;;;;25.83;39.51;99541.63;5037301;28;20045;-88
2021/08/04 11:12:16;;;;;;;5.05;2.97;;;;;;;25.96;39.06;99551.13;5051970;28;20044;-95
2021/08/04 11:14:56;;;;;;;6.47;3.28;;;;;;;26.01;39.38;99555.47;5040536;28;20144;-78
2021/08/04 11:17:33;;;;;;;10.10;3.17;;;;;;;25.88;39.25;99552.38;5045205;28;20037;-91
2021/08/04 11:20:03;;;;;;;7.00;2.40;;;;;;;25.93;38.89;99557.53;5050188;28;20160;-78
2021/08/04 11:22:44;;;;;;;12.95;3.45;;;;;;;25.95;39.07;99551.50;5044089;28;20505;-91
2021/08/04 11:25:35;;;;;;;7.93;4.13;;;;;;;25.91;39.21;99554.34;5050585;28;20140;-95
2021/08/04 11:28:17;;;;;;;10.48;5.90;;;;;;;25.83;39.48;99561.22;5046176;28;20105;-80
2021/08/04 11:30:50;;;;;;;13.10;4.40;;;;;;;25.94;39.44;99561.13;5044363;28;20076;-96
2021/08/04 11:33:25;;;;;;;8.70;3.88;;;;;;;25.86;38.61;99563.19;5056482;28;20087;-90
2021/08/04 11:36:06;;;;;;;9.68;3.10;;;;;;;25.83;37.91;99561.22;5068528;28;20072;-96
2021/08/04 11:38:57;;;;;;;12.65;3.70;;;;;;;25.83;38.44;99568.78;5077620;28;20074;-96
2021/08/04 11:41:31;;;;;;;9.48;3.80;;;;;;;25.91;38.72;99565.53;5069112;28;20110;-90
2021/08/04 11:44:09;;;;;;;12.65;3.97;;;;;;;25.70;38.21;99574.06;5031573;28;20399;-96
2021/08/04 11:46:44;;;;;;;11.45;3.33;;;;;;;25.48;37.76;99573.38;5062453;28;20059;-96
2021/08/04 11:49:39;;;;;;;9.30;3.55;;;;;;;25.16;38.22;99585.50;5066058;28;20100;-93